Pine Cliff, Utah
Current Conditions -  °F | °C
As of 1:53 PM on Tuesday 21 Oct 2014 (Local Time) from KEVW Reporting Station
Few Clouds Few Clouds  
Wind Chill: 13°   Ceiling: Unl
Heat Index: 13°   Visibility: 10mi
Dew Point:   Wind: 23mph
Humidity: 49%   Direction: 260°W
Pressure: 30.03"   Gusts: 30mph
Location:  40.9431°N, 111.212°W
Report Text: KEVW 211953Z AUTO 26020G26KT 10SM FEW049 13/02 A3003 RMK AO2 PK WND 26030/1903 SLP107 T01280022 TSNO
Loading
Personal Weather Stations






























Interactive Weather Map
Tropical Storm Tracking
New forecast layout! Learn more

10-Day Weather Forecast

Advertisements
Track Severe Weather on mobile